createdAt,value
2022-09-01T04:01:08.196Z,100.00
2022-09-01T04:03:42.519Z,100.00
2022-09-01T04:06:11.198Z,100.00
2022-09-01T04:08:39.314Z,100.00
2022-09-01T04:11:13.798Z,100.00
2022-09-01T04:13:42.731Z,100.00
2022-09-01T04:16:53.246Z,100.00
2022-09-01T04:19:25.775Z,100.00
2022-09-01T04:21:55.687Z,99.54
2022-09-01T04:24:27.920Z,99.84
2022-09-01T04:26:58.622Z,100.00
2022-09-01T04:29:28.058Z,100.00
2022-09-01T04:31:56.489Z,100.00
2022-09-01T04:34:28.023Z,100.00
2022-09-01T04:36:56.784Z,100.00
2022-09-01T04:39:25.182Z,100.00
2022-09-01T04:41:52.818Z,100.00
2022-09-01T04:44:20.564Z,100.00
2022-09-01T04:46:50.449Z,100.00
2022-09-01T04:49:22.302Z,99.87
2022-09-01T04:51:54.300Z,99.45
2022-09-01T04:54:23.338Z,100.00
2022-09-01T04:56:53.931Z,100.00
2022-09-01T04:59:23.799Z,100.00
2022-09-01T05:01:54.881Z,100.00
2022-09-01T05:04:27.323Z,100.00
2022-09-01T05:06:59.606Z,100.00
2022-09-01T05:09:28.773Z,100.00
2022-09-01T05:11:57.881Z,100.00
2022-09-01T05:14:26.208Z,100.00
2022-09-01T05:16:58.733Z,100.00
2022-09-01T05:19:29.117Z,100.00
2022-09-01T05:21:59.794Z,100.00
2022-09-01T05:24:30.299Z,100.00
2022-09-01T05:27:00.409Z,100.00
2022-09-01T05:29:28.745Z,100.00
2022-09-01T05:31:57.284Z,100.00
2022-09-01T05:34:27.353Z,100.00
2022-09-01T05:36:57.877Z,100.00
2022-09-01T05:39:27.603Z,100.00
2022-09-01T05:41:55.968Z,100.00
2022-09-01T05:44:23.721Z,100.00
2022-09-01T05:46:52.699Z,100.00
2022-09-01T05:49:20.413Z,100.00
2022-09-01T05:51:51.646Z,100.00
2022-09-01T05:54:23.037Z,100.00
2022-09-01T05:56:53.425Z,100.00
2022-09-01T05:59:23.040Z,100.00
2022-09-01T06:01:53.229Z,100.00
2022-09-01T06:04:23.276Z,100.00
2022-09-01T06:07:08.432Z,100.00
2022-09-01T06:09:39.415Z,100.00
2022-09-01T06:12:09.130Z,100.00
2022-09-01T06:14:36.802Z,100.00
2022-09-01T06:17:04.613Z,100.00
2022-09-01T06:19:36.873Z,100.00
2022-09-01T06:22:05.430Z,100.00
2022-09-01T06:24:33.359Z,100.00
2022-09-01T06:27:01.117Z,100.00
2022-09-01T06:29:31.129Z,100.00
2022-09-01T06:31:58.805Z,100.00
2022-09-01T06:34:26.370Z,100.00
2022-09-01T06:36:53.973Z,100.00
2022-09-01T06:39:21.602Z,100.00
2022-09-01T06:41:52.669Z,100.00
2022-09-01T06:44:22.695Z,100.00
2022-09-01T06:46:52.970Z,100.00
2022-09-01T06:49:29.565Z,100.00
2022-09-01T06:51:57.150Z,100.00
2022-09-01T06:54:25.510Z,100.00
2022-09-01T06:56:55.241Z,100.00
2022-09-01T06:59:23.222Z,100.00
2022-09-01T07:02:01.489Z,100.00
2022-09-01T07:04:31.409Z,100.00
2022-09-01T07:07:53.065Z,100.00
2022-09-01T07:10:05.672Z,100.00
2022-09-01T07:12:35.215Z,99.23
2022-09-01T07:17:55.487Z,98.50
2022-09-01T07:20:27.514Z,97.15
2022-09-01T07:23:05.544Z,96.11
2022-09-01T07:26:01.090Z,95.29
2022-09-01T07:28:36.168Z,94.93
2022-09-01T07:34:37.631Z,93.91
2022-09-01T07:39:49.836Z,91.11
2022-09-01T07:45:25.930Z,85.67
2022-09-01T07:47:54.711Z,83.32
2022-09-01T07:50:39.663Z,81.15
2022-09-01T07:53:09.108Z,78.06
2022-09-01T07:55:41.176Z,78.24
2022-09-01T07:58:08.823Z,73.50
2022-09-01T08:00:37.092Z,71.15
2022-09-01T08:03:04.762Z,71.24
2022-09-01T08:05:34.573Z,68.07
2022-09-01T08:08:02.144Z,67.03
2022-09-01T08:10:31.857Z,63.76
2022-09-01T08:12:59.506Z,63.08
2022-09-01T08:16:06.911Z,58.88
2022-09-01T08:18:15.612Z,58.42
2022-09-01T08:20:47.106Z,58.59
2022-09-01T08:23:16.322Z,58.28
2022-09-01T08:25:45.078Z,57.57
2022-09-01T08:28:13.115Z,52.85
2022-09-01T08:30:42.441Z,52.70
2022-09-01T08:33:20.371Z,52.30
2022-09-01T08:35:50.561Z,52.32
2022-09-01T08:38:18.209Z,52.98
2022-09-01T08:40:56.419Z,52.19
2022-09-01T08:43:37.882Z,50.08
2022-09-01T08:46:11.150Z,51.57
2022-09-01T08:51:38.189Z,51.86
2022-09-01T08:54:12.578Z,50.81
2022-09-01T08:56:41.799Z,51.69
2022-09-01T08:59:12.061Z,51.69
2022-09-01T09:01:47.040Z,50.96
2022-09-01T09:04:31.191Z,52.10
2022-09-01T09:07:10.567Z,51.64
2022-09-01T09:09:53.084Z,51.98
2022-09-01T09:12:49.015Z,51.55
2022-09-01T09:15:25.444Z,51.34
2022-09-01T09:18:00.666Z,52.67
2022-09-01T09:20:28.845Z,51.72
2022-09-01T09:22:59.767Z,52.21
2022-09-01T09:25:29.586Z,52.58
2022-09-01T09:28:04.306Z,52.43
2022-09-01T09:30:33.030Z,52.16
2022-09-01T09:35:54.248Z,52.06
2022-09-01T09:38:28.927Z,51.91
2022-09-01T09:41:18.465Z,52.77
2022-09-01T09:43:50.180Z,49.52
2022-09-01T09:46:27.356Z,49.75
2022-09-01T09:49:11.413Z,49.17
2022-09-01T09:51:40.550Z,48.19
2022-09-01T09:54:20.853Z,47.05
2022-09-01T09:56:50.623Z,46.96
2022-09-01T09:59:56.598Z,46.46
2022-09-01T10:02:27.997Z,46.59
2022-09-01T10:04:57.119Z,47.93
2022-09-01T10:07:34.605Z,47.26
2022-09-01T10:10:06.567Z,48.69
2022-09-01T10:12:35.890Z,47.93
2022-09-01T10:15:13.688Z,46.82
2022-09-01T10:17:43.954Z,46.73
2022-09-01T10:20:16.926Z,46.85
2022-09-01T10:22:45.072Z,47.37
2022-09-01T10:25:18.821Z,46.62
2022-09-01T10:27:49.889Z,47.34
2022-09-01T10:30:20.394Z,47.18
2022-09-01T10:32:55.412Z,46.59
2022-09-01T10:35:27.153Z,46.31
2022-09-01T10:37:58.072Z,45.71
2022-09-01T10:40:43.472Z,45.55
2022-09-01T10:43:46.023Z,46.11
2022-09-01T10:46:58.827Z,45.05
2022-09-01T10:49:59.362Z,45.06
2022-09-01T10:52:56.592Z,45.29
2022-09-01T10:55:27.629Z,44.43
2022-09-01T10:58:09.422Z,44.36
2022-09-01T11:04:00.745Z,43.73
2022-09-01T11:07:14.420Z,43.04
2022-09-01T11:09:44.764Z,42.48
2022-09-01T11:12:37.788Z,41.34
2022-09-01T11:15:35.939Z,41.63
2022-09-01T11:18:08.529Z,40.93
2022-09-01T11:20:39.406Z,41.44
2022-09-01T11:23:12.534Z,41.07
2022-09-01T11:25:43.827Z,41.37
2022-09-01T11:28:37.387Z,40.85
2022-09-01T11:31:21.282Z,41.09
2022-09-01T11:33:57.498Z,41.05
2022-09-01T11:36:29.962Z,40.40
2022-09-01T11:39:06.386Z,39.31
2022-09-01T11:41:45.709Z,39.25
2022-09-01T11:44:19.438Z,40.16
2022-09-01T11:46:49.491Z,39.82
2022-09-01T11:49:30.390Z,40.16
2022-09-01T11:52:00.139Z,39.87
2022-09-01T11:54:29.283Z,39.56
2022-09-01T11:56:56.938Z,39.58
2022-09-01T11:59:35.762Z,39.61
2022-09-01T12:02:05.163Z,39.56
2022-09-01T12:04:36.201Z,38.27
2022-09-01T12:07:10.680Z,38.64
2022-09-01T12:09:42.633Z,37.93
2022-09-01T12:12:30.151Z,38.72
2022-09-01T12:15:05.543Z,38.56
2022-09-01T12:17:36.242Z,38.52
2022-09-01T12:20:29.868Z,38.09
2022-09-01T12:22:58.949Z,38.06
2022-09-01T12:25:28.734Z,38.62
2022-09-01T12:27:56.797Z,39.67
2022-09-01T12:30:26.824Z,38.76
2022-09-01T12:35:46.129Z,38.41
2022-09-01T12:38:24.857Z,38.71
2022-09-01T12:40:54.642Z,39.19
2022-09-01T12:43:31.544Z,39.76
2022-09-01T12:46:02.873Z,39.29
2022-09-01T12:48:35.125Z,39.25
2022-09-01T12:51:05.083Z,39.69
2022-09-01T12:53:36.581Z,39.52
2022-09-01T12:56:31.061Z,37.55
2022-09-01T12:59:16.063Z,38.03
2022-09-01T13:01:45.280Z,38.21
2022-09-01T13:04:24.765Z,38.57
2022-09-01T13:06:53.430Z,38.02
2022-09-01T13:09:21.196Z,37.64
2022-09-01T13:12:06.287Z,37.14
2022-09-01T13:14:34.709Z,37.69
2022-09-01T13:17:02.362Z,38.53
2022-09-01T13:19:31.292Z,38.27
2022-09-01T13:21:59.069Z,37.68
2022-09-01T13:24:30.520Z,37.95
2022-09-01T13:29:47.363Z,37.24
2022-09-01T13:32:18.336Z,37.86
2022-09-01T13:34:50.514Z,37.83
2022-09-01T13:37:19.593Z,37.72
2022-09-01T13:39:48.614Z,37.38
2022-09-01T13:42:16.819Z,38.39
2022-09-01T13:44:44.666Z,38.31
2022-09-01T13:47:29.047Z,38.37
2022-09-01T13:50:09.339Z,37.28
2022-09-01T13:52:39.021Z,37.32
2022-09-01T13:55:08.813Z,37.31
2022-09-01T13:57:37.044Z,37.68
2022-09-01T14:00:08.149Z,37.29
2022-09-01T14:02:36.767Z,38.17
2022-09-01T14:05:06.967Z,38.47
2022-09-01T14:07:37.387Z,38.36
2022-09-01T14:10:07.563Z,37.97
2022-09-01T14:12:35.632Z,37.78
2022-09-01T14:15:13.576Z,37.52
2022-09-01T14:17:44.865Z,36.72
2022-09-01T14:20:18.143Z,36.27
2022-09-01T14:22:46.356Z,36.44
2022-09-01T14:25:15.135Z,36.30
2022-09-01T14:27:44.550Z,36.48
2022-09-01T14:30:16.239Z,36.82
2022-09-01T14:32:44.211Z,35.95
2022-09-01T14:35:12.160Z,35.88
2022-09-01T14:37:42.011Z,36.23
2022-09-01T14:40:16.459Z,36.27
2022-09-01T14:42:49.356Z,36.45
2022-09-01T14:45:18.809Z,35.89
2022-09-01T14:47:47.154Z,35.93
2022-09-01T14:50:19.834Z,36.09
2022-09-01T14:52:54.308Z,36.32
2022-09-01T14:55:22.682Z,36.45
2022-09-01T14:57:52.111Z,36.47
2022-09-01T15:00:20.141Z,37.13
2022-09-01T15:02:49.129Z,37.14
2022-09-01T15:05:17.156Z,36.09
2022-09-01T15:07:45.061Z,35.77
2022-09-01T15:10:24.902Z,36.29
2022-09-01T15:12:55.467Z,35.62
2022-09-01T15:15:23.940Z,35.57
2022-09-01T15:17:51.753Z,35.94
2022-09-01T15:20:37.264Z,36.20
2022-09-01T15:23:07.667Z,36.46
2022-09-01T15:25:36.862Z,36.64
2022-09-01T15:28:05.113Z,36.73
2022-09-01T15:30:33.179Z,35.04
2022-09-01T15:33:00.769Z,35.67
2022-09-01T15:35:29.345Z,36.00
2022-09-01T15:37:58.122Z,35.49
2022-09-01T15:40:26.620Z,36.27
2022-09-01T15:42:56.602Z,35.44
2022-09-01T15:45:25.364Z,36.43
2022-09-01T15:47:53.004Z,36.17
2022-09-01T15:50:23.110Z,36.33
2022-09-01T15:52:59.476Z,36.47
2022-09-01T15:55:29.554Z,36.14
2022-09-01T15:58:00.592Z,36.13
2022-09-01T16:00:29.710Z,35.96
2022-09-01T16:03:02.599Z,36.75
2022-09-01T16:05:31.054Z,37.03
2022-09-01T16:08:01.203Z,37.10
2022-09-01T16:10:33.530Z,36.46
2022-09-01T16:13:05.803Z,36.11
2022-09-01T16:15:35.057Z,36.85
2022-09-01T16:18:23.634Z,35.77
2022-09-01T16:20:59.356Z,37.01
2022-09-01T16:23:36.411Z,36.52
2022-09-01T16:26:04.174Z,36.32
2022-09-01T16:28:36.401Z,36.53
2022-09-01T16:31:08.810Z,35.83
2022-09-01T16:36:20.730Z,35.95
2022-09-01T16:38:51.500Z,35.74
2022-09-01T16:41:43.048Z,35.27
2022-09-01T16:44:23.398Z,35.71
2022-09-01T16:46:56.445Z,35.85
2022-09-01T16:49:33.758Z,35.60
2022-09-01T16:52:05.510Z,35.45
2022-09-01T16:54:43.762Z,35.66
2022-09-01T16:57:21.277Z,35.99
2022-09-01T16:59:55.793Z,35.30
2022-09-01T17:02:49.608Z,35.80
2022-09-01T17:05:24.028Z,35.70
2022-09-01T17:07:54.448Z,36.21
2022-09-01T17:10:34.430Z,36.30
2022-09-01T17:13:17.176Z,37.09
2022-09-01T17:15:53.725Z,37.42
2022-09-01T17:18:30.312Z,37.72
2022-09-01T17:21:03.859Z,37.43
2022-09-01T17:23:37.952Z,37.56
2022-09-01T17:26:13.348Z,37.84
2022-09-01T17:28:46.489Z,38.08
2022-09-01T17:31:26.487Z,38.65
2022-09-01T17:34:06.259Z,39.21
2022-09-01T17:36:46.871Z,39.33
2022-09-01T17:39:28.976Z,39.66
2022-09-01T17:42:01.087Z,40.07
2022-09-01T17:44:41.098Z,40.16
2022-09-01T17:47:20.718Z,40.39
2022-09-01T17:49:54.508Z,40.80
2022-09-01T17:52:37.292Z,40.88
2022-09-01T17:55:10.322Z,40.88
2022-09-01T17:57:43.589Z,41.11
2022-09-01T18:00:23.021Z,41.30
2022-09-01T18:03:49.195Z,41.64
2022-09-01T18:06:26.527Z,41.83
2022-09-01T18:08:58.119Z,42.09
2022-09-01T18:11:36.524Z,42.28
2022-09-01T18:14:08.808Z,42.42
2022-09-01T18:16:44.204Z,42.59
2022-09-01T18:19:19.741Z,42.75
2022-09-01T18:21:53.302Z,42.85
2022-09-01T18:24:24.257Z,43.01
2022-09-01T18:26:53.257Z,43.21
2022-09-01T18:29:23.037Z,43.26
2022-09-01T18:32:19.879Z,43.63
2022-09-01T18:35:03.334Z,43.65
2022-09-01T18:37:40.132Z,43.75
2022-09-01T18:40:18.118Z,43.91
2022-09-01T18:42:54.044Z,44.24
2022-09-01T18:45:32.737Z,44.31
2022-09-01T18:48:07.513Z,44.53
2022-09-01T18:50:45.582Z,44.45
2022-09-01T18:53:27.694Z,44.80
2022-09-01T18:56:02.662Z,44.98
2022-09-01T18:58:44.331Z,44.83
2022-09-01T19:01:15.551Z,45.22
2022-09-01T19:03:51.545Z,45.44
2022-09-01T19:06:31.769Z,45.37
2022-09-01T19:09:08.489Z,45.38
2022-09-01T19:11:46.426Z,45.43
2022-09-01T19:17:16.426Z,45.67
2022-09-01T19:19:49.702Z,45.83
2022-09-01T19:22:22.541Z,45.58
2022-09-01T19:24:54.521Z,46.11
2022-09-01T19:27:25.817Z,46.09
2022-09-01T19:29:56.963Z,46.14
2022-09-01T19:32:29.259Z,46.09
2022-09-01T19:35:00.271Z,46.03
2022-09-01T19:37:29.065Z,46.21
2022-09-01T19:39:57.698Z,46.51
2022-09-01T19:42:29.317Z,46.73
2022-09-01T19:45:06.940Z,46.94
2022-09-01T19:47:41.104Z,47.17
2022-09-01T19:50:17.582Z,47.50
2022-09-01T19:52:55.255Z,47.37
2022-09-01T19:55:31.477Z,47.54
2022-09-01T19:58:04.104Z,47.43
2022-09-01T20:00:41.844Z,47.83
2022-09-01T20:03:13.167Z,47.95
2022-09-01T20:05:42.705Z,48.27
2022-09-01T20:08:19.639Z,48.26
2022-09-01T20:10:57.027Z,48.38
2022-09-01T20:13:40.699Z,48.51
2022-09-01T20:16:20.357Z,49.06
2022-09-01T20:18:53.447Z,49.44
2022-09-01T20:21:22.129Z,49.97
2022-09-01T20:23:56.763Z,49.71
2022-09-01T20:26:31.914Z,49.98
2022-09-01T20:29:04.239Z,50.76
2022-09-01T20:31:34.833Z,50.85
2022-09-01T20:34:08.752Z,51.52
2022-09-01T20:36:42.342Z,51.70
2022-09-01T20:39:35.875Z,51.48
2022-09-01T20:42:08.925Z,52.47
2022-09-01T20:44:44.381Z,52.67
2022-09-01T20:47:13.012Z,52.34
2022-09-01T20:49:42.353Z,52.61
2022-09-01T20:52:17.152Z,52.84
2022-09-01T20:54:55.302Z,53.10
2022-09-01T20:57:35.513Z,53.39
2022-09-01T21:00:08.183Z,53.42
2022-09-01T21:02:52.598Z,53.32
2022-09-01T21:05:34.080Z,53.57
2022-09-01T21:08:31.477Z,54.43
2022-09-01T21:11:11.923Z,53.84
2022-09-01T21:13:54.155Z,54.73
2022-09-01T21:16:31.274Z,55.17
2022-09-01T21:19:07.351Z,54.75
2022-09-01T21:21:40.386Z,55.02
2022-09-01T21:24:08.416Z,55.33
2022-09-01T21:26:38.609Z,55.01
2022-09-01T21:29:19.168Z,55.43
2022-09-01T21:31:47.560Z,55.01
2022-09-01T21:36:56.660Z,55.61
2022-09-01T21:39:24.291Z,55.14
2022-09-01T21:41:53.448Z,56.65
2022-09-01T21:44:22.225Z,56.25
2022-09-01T21:46:50.377Z,56.72
2022-09-01T21:49:20.058Z,57.40
2022-09-01T21:51:47.650Z,57.37
2022-09-01T21:54:15.409Z,56.85
2022-09-01T21:56:43.583Z,57.71
2022-09-01T21:59:17.063Z,59.42
2022-09-01T22:01:45.553Z,59.74
2022-09-01T22:04:15.233Z,60.29
2022-09-01T22:06:45.227Z,61.49
2022-09-01T22:09:20.980Z,61.44
2022-09-01T22:11:51.641Z,61.99
2022-09-01T22:14:21.971Z,62.59
2022-09-01T22:16:52.778Z,61.92
2022-09-01T22:19:21.915Z,62.27
2022-09-01T22:21:50.587Z,63.02
2022-09-01T22:24:20.867Z,65.07
2022-09-01T22:26:49.822Z,64.88
2022-09-01T22:29:18.619Z,65.29
2022-09-01T22:31:47.884Z,65.66
2022-09-01T22:34:18.530Z,64.74
2022-09-01T22:36:49.377Z,65.00
2022-09-01T22:39:19.338Z,66.46
2022-09-01T22:41:52.351Z,65.26
2022-09-01T22:44:20.585Z,67.97
2022-09-01T22:46:50.191Z,68.45
2022-09-01T22:49:20.540Z,68.23
2022-09-01T22:51:49.023Z,67.97
2022-09-01T22:54:19.730Z,68.09
2022-09-01T22:56:52.478Z,69.40
2022-09-01T22:59:22.524Z,68.49
2022-09-01T23:01:53.202Z,70.08
2022-09-01T23:04:21.278Z,70.29
2022-09-01T23:06:54.578Z,70.98
2022-09-01T23:09:22.635Z,70.73
2022-09-01T23:11:50.911Z,70.73
2022-09-01T23:14:20.420Z,68.91
2022-09-01T23:16:51.279Z,69.88
2022-09-01T23:19:22.219Z,71.57
2022-09-01T23:21:50.985Z,71.28
2022-09-01T23:24:19.931Z,72.03
2022-09-01T23:26:47.975Z,73.28
2022-09-01T23:29:15.571Z,72.13
2022-09-01T23:31:43.813Z,72.52
2022-09-01T23:34:13.170Z,72.28
2022-09-01T23:36:42.346Z,73.84
2022-09-01T23:39:10.026Z,74.45
2022-09-01T23:41:38.211Z,73.75
2022-09-01T23:44:09.338Z,75.07
2022-09-01T23:46:39.933Z,75.89
2022-09-01T23:49:07.978Z,76.57
2022-09-01T23:51:36.118Z,76.58
2022-09-01T23:54:05.567Z,77.07
2022-09-01T23:56:33.595Z,77.09
2022-09-01T23:59:01.865Z,74.99
